Time;durP1;ratioP1;P1;durP2;ratioP2;P2;SDS_P1;SDS_P2;PMS_P1;PMS_P2;Temp;Humidity;BMP_temperature;BMP_pressure;BME280_temperature;BME280_humidity;BME280_pressure;Samples;Min_cycle;Max_cycle;Signal;HPM_P1;HPM_P2
2021/12/03 00:02:11;;;;;;;7.95;2.77;;;;;;;2.53;70.85;97785.72;4121374;84;28532;-79
2021/12/03 00:08:13;;;;;;;8.18;2.80;;;;;;;2.47;69.08;97791.86;4184022;85;28544;-79
2021/12/03 00:14:14;;;;;;;7.12;2.60;;;;;;;2.42;69.47;97812.38;4208342;83;28457;-79
2021/12/03 00:20:17;;;;;;;10.03;2.55;;;;;;;2.18;69.33;97816.51;4171706;83;28466;-78
2021/12/03 00:26:18;;;;;;;7.80;2.90;;;;;;;2.31;69.47;97820.98;4200418;83;28520;-79
2021/12/03 00:32:19;;;;;;;8.35;2.42;;;;;;;2.27;70.11;97846.30;4141989;85;28493;-81
2021/12/03 00:38:21;;;;;;;8.78;2.20;;;;;;;2.16;69.73;97859.66;4152587;84;28483;-77
2021/12/03 00:44:24;;;;;;;7.08;2.00;;;;;;;2.04;68.48;97849.68;4110436;85;28546;-76
2021/12/03 00:50:28;;;;;;;6.45;2.37;;;;;;;1.61;69.48;97869.43;4192084;85;28467;-77
2021/12/03 00:56:29;;;;;;;7.08;2.45;;;;;;;1.85;71.53;97875.18;4075467;86;28464;-78
2021/12/03 01:02:30;;;;;;;7.78;2.52;;;;;;;1.88;72.48;97881.39;4187775;85;28504;-78
2021/12/03 01:08:35;;;;;;;4.45;1.82;;;;;;;1.70;73.09;97886.47;4105230;86;28472;-77
2021/12/03 01:14:36;;;;;;;7.60;2.25;;;;;;;1.61;74.04;97891.16;4119042;86;28522;-78
2021/12/03 01:20:40;;;;;;;7.47;2.40;;;;;;;1.52;73.81;97897.95;4184740;84;28510;-78
2021/12/03 01:26:44;;;;;;;5.65;2.30;;;;;;;1.64;76.78;97905.31;4094603;86;28473;-78
2021/12/03 01:32:46;;;;;;;4.87;1.80;;;;;;;1.74;78.43;97904.94;4097217;85;28461;-77
2021/12/03 01:38:48;;;;;;;6.83;1.75;;;;;;;1.66;79.07;97900.62;4045975;87;28500;-75
2021/12/03 01:44:50;;;;;;;4.95;1.45;;;;;;;1.67;79.30;97891.16;4177239;83;28545;-76
2021/12/03 01:50:52;;;;;;;3.25;1.60;;;;;;;1.60;80.99;97889.52;4189700;84;28567;-77
2021/12/03 01:56:54;;;;;;;4.97;1.70;;;;;;;1.55;82.21;97892.77;4192678;83;28539;-78
2021/12/03 02:02:57;;;;;;;6.80;1.70;;;;;;;1.57;82.71;97901.33;4213167;83;28497;-78
2021/12/03 02:08:59;;;;;;;6.37;1.98;;;;;;;1.52;84.30;97928.95;4181467;83;28478;-78
2021/12/03 02:15:01;;;;;;;5.20;1.80;;;;;;;1.54;85.60;97949.42;4222090;83;28498;-77
2021/12/03 02:21:05;;;;;;;6.53;1.98;;;;;;;1.58;84.00;97955.95;4222045;83;28482;-79
2021/12/03 02:27:06;;;;;;;7.47;3.40;;;;;;;1.53;83.83;97965.81;4225709;82;28608;-77
2021/12/03 02:33:08;;;;;;;5.70;1.90;;;;;;;1.57;85.18;97982.66;4218296;83;28511;-77
2021/12/03 02:39:09;;;;;;;6.28;1.87;;;;;;;1.56;85.72;97986.30;4218856;83;28532;-77
2021/12/03 02:45:13;;;;;;;7.47;2.42;;;;;;;1.56;85.19;97996.90;4127186;85;28489;-76
2021/12/03 02:51:14;;;;;;;3.85;1.52;;;;;;;1.54;85.58;98003.73;4127729;86;28475;-76
2021/12/03 02:57:16;;;;;;;4.53;1.55;;;;;;;1.51;85.05;98006.27;4133195;86;28527;-77
2021/12/03 03:03:18;;;;;;;4.15;1.42;;;;;;;1.36;82.46;98010.91;4192786;83;28485;-78
2021/12/03 03:09:19;;;;;;;5.92;1.77;;;;;;;1.09;85.84;98003.64;4159263;84;28456;-78
2021/12/03 03:15:21;;;;;;;3.20;1.65;;;;;;;1.26;85.02;98016.55;4058742;86;28506;-78
2021/12/03 03:21:23;;;;;;;6.45;1.80;;;;;;;1.18;86.23;98029.45;4057798;86;28541;-78
2021/12/03 03:27:24;;;;;;;3.92;1.52;;;;;;;1.07;88.02;98035.28;4064175;86;28555;-78
2021/12/03 03:33:28;;;;;;;5.90;1.55;;;;;;;0.95;90.34;98043.77;4057230;86;28542;-76
2021/12/03 03:39:30;;;;;;;4.20;1.70;;;;;;;0.99;91.67;98046.86;4058408;86;28496;-77
2021/12/03 03:45:35;;;;;;;5.47;2.10;;;;;;;0.74;95.75;98056.53;4066816;86;28505;-76
2021/12/03 03:51:37;;;;;;;5.50;2.37;;;;;;;0.92;95.14;98061.86;4089263;86;28481;-76
2021/12/03 03:57:39;;;;;;;4.67;2.12;;;;;;;0.87;96.63;98066.41;4160627;84;28559;-76
2021/12/03 04:03:45;;;;;;;5.83;2.08;;;;;;;0.83;96.47;98079.20;4153571;84;28600;-76
2021/12/03 04:09:43;;;;;;;4.62;1.90;;;;;;;0.78;98.22;98095.34;4055110;85;28620;-78
2021/12/03 04:15:45;;;;;;;5.55;1.45;;;;;;;0.65;100.00;98110.59;4151131;84;28536;-76
2021/12/03 04:21:46;;;;;;;4.00;1.57;;;;;;;0.50;100.00;98129.16;4159437;84;28483;-77
2021/12/03 04:27:49;;;;;;;4.05;1.60;;;;;;;0.59;100.00;98140.46;4158762;84;28513;-78
2021/12/03 04:33:51;;;;;;;4.72;1.67;;;;;;;0.52;100.00;98149.63;4157519;84;28577;-78
2021/12/03 04:39:52;;;;;;;4.08;1.82;;;;;;;0.64;100.00;98151.28;4163832;84;28578;-78
2021/12/03 04:45:53;;;;;;;5.83;1.95;;;;;;;0.75;100.00;98160.56;4174078;83;28532;-78
2021/12/03 04:51:55;;;;;;;4.00;1.85;;;;;;;0.71;100.00;98164.57;4210337;83;28484;-79
2021/12/03 04:57:56;;;;;;;4.00;1.42;;;;;;;0.65;100.00;98171.44;4150940;84;28481;-77
2021/12/03 05:03:57;;;;;;;4.15;1.50;;;;;;;0.62;100.00;98174.47;4227801;83;28521;-78
2021/12/03 05:09:59;;;;;;;2.22;1.20;;;;;;;0.32;100.00;98189.09;4151861;84;28469;-77
2021/12/03 05:16:01;;;;;;;2.92;1.22;;;;;;;0.28;100.00;98196.57;4231107;82;28482;-77
2021/12/03 05:22:03;;;;;;;4.62;1.52;;;;;;;-0.02;100.00;98207.17;4223068;83;28484;-76
2021/12/03 05:28:06;;;;;;;2.65;1.20;;;;;;;0.06;100.00;98226.91;4221726;83;28470;-77
2021/12/03 05:34:12;;;;;;;3.45;1.60;;;;;;;0.06;100.00;98222.95;4168188;84;28482;-76
2021/12/03 05:40:13;;;;;;;4.22;1.75;;;;;;;0.34;100.00;98206.42;4221210;83;43396;-76
2021/12/03 05:46:15;;;;;;;4.78;1.60;;;;;;;0.46;100.00;98213.35;4157185;84;28547;-76
2021/12/03 05:52:17;;;;;;;4.92;1.55;;;;;;;0.53;100.00;98224.84;4151813;84;28525;-76
2021/12/03 05:58:20;;;;;;;5.65;2.30;;;;;;;0.58;100.00;98239.35;4232806;84;28531;-76
2021/12/03 06:04:21;;;;;;;5.33;2.35;;;;;;;0.68;100.00;98247.81;4250004;82;28857;-76
2021/12/03 06:10:23;;;;;;;5.50;2.25;;;;;;;0.72;100.00;98258.81;4241259;84;28508;-75
2021/12/03 06:16:24;;;;;;;8.00;2.30;;;;;;;0.74;100.00;98264.24;4208707;84;28440;-76
2021/12/03 06:22:26;;;;;;;6.58;2.70;;;;;;;0.73;100.00;98279.81;4177627;84;28499;-75
2021/12/03 06:28:30;;;;;;;5.72;2.10;;;;;;;0.70;100.00;98282.83;4174472;82;28480;-78
2021/12/03 06:34:31;;;;;;;7.60;3.00;;;;;;;0.66;100.00;98289.00;4219614;84;28506;-76
2021/12/03 06:40:33;;;;;;;5.75;2.90;;;;;;;0.55;100.00;98294.24;4173416;83;28444;-76
2021/12/03 06:46:36;;;;;;;6.50;2.83;;;;;;;0.38;100.00;98311.34;4132588;86;28578;-77
2021/12/03 06:52:40;;;;;;;8.88;3.00;;;;;;;0.35;100.00;98321.77;4154126;84;28509;-78
2021/12/03 06:58:40;;;;;;;8.73;2.75;;;;;;;0.47;100.00;98335.86;4197855;83;28478;-78
2021/12/03 07:04:43;;;;;;;6.17;2.92;;;;;;;0.50;100.00;98351.34;4198265;84;28501;-81
2021/12/03 07:10:45;;;;;;;6.72;2.60;;;;;;;0.51;100.00;98372.83;4224249;83;28569;-80
2021/12/03 07:16:47;;;;;;;6.55;3.20;;;;;;;0.46;100.00;98379.18;4204558;83;28432;-82
2021/12/03 07:22:49;;;;;;;8.45;3.40;;;;;;;0.31;100.00;98375.20;4224757;83;28474;-83
2021/12/03 07:28:52;;;;;;;9.75;3.27;;;;;;;0.22;100.00;98389.82;4215421;83;28504;-81
2021/12/03 07:34:53;;;;;;;10.20;3.80;;;;;;;0.30;100.00;98394.72;4196313;83;28554;-82
2021/12/03 07:40:55;;;;;;;9.00;3.47;;;;;;;0.40;100.00;98413.27;4203480;83;28490;-84
2021/12/03 07:46:59;;;;;;;8.33;3.70;;;;;;;0.40;100.00;98421.20;4196562;83;28572;-81
2021/12/03 07:53:02;;;;;;;7.97;4.15;;;;;;;0.35;100.00;98421.42;4186868;83;28458;-81
2021/12/03 07:59:04;;;;;;;8.05;3.98;;;;;;;0.26;100.00;98435.23;4216220;83;28470;-81
2021/12/03 08:05:06;;;;;;;9.85;4.15;;;;;;;0.26;100.00;98433.91;4202999;83;28513;-83
2021/12/03 08:11:08;;;;;;;12.35;4.47;;;;;;;0.26;100.00;98453.74;4200837;84;28470;-85
2021/12/03 08:17:10;;;;;;;9.28;4.42;;;;;;;0.30;100.00;98447.61;4244774;83;28441;-83
2021/12/03 08:23:12;;;;;;;14.05;5.25;;;;;;;0.31;100.00;98465.91;4237472;83;28530;-87
2021/12/03 08:29:13;;;;;;;10.13;4.72;;;;;;;0.61;100.00;98475.23;4230128;84;28462;-82
2021/12/03 08:35:16;;;;;;;11.30;4.50;;;;;;;0.94;100.00;98485.50;4254959;82;28972;-84
2021/12/03 08:41:18;;;;;;;10.63;4.42;;;;;;;1.05;100.00;98497.97;4250224;82;28499;-84
2021/12/03 08:47:19;;;;;;;11.35;4.65;;;;;;;0.96;100.00;98490.11;4186594;84;28555;-85
2021/12/03 08:59:43;;;;;;;9.15;3.65;;;;;;;0.88;100.00;98515.83;4196807;84;28472;-82
2021/12/03 09:05:46;;;;;;;8.33;3.77;;;;;;;1.07;100.00;98519.27;4169532;84;28540;-81
2021/12/03 09:11:47;;;;;;;8.90;3.37;;;;;;;1.09;100.00;98530.52;4135848;84;28536;-82
2021/12/03 09:18:09;;;;;;;6.87;3.00;;;;;;;0.86;100.00;98535.04;4132353;84;28532;-80
2021/12/03 09:24:10;;;;;;;3.58;1.77;;;;;;;1.09;100.00;98550.38;4149952;84;28516;-87
2021/12/03 09:30:09;;;;;;;;;;;;;;;1.08;95.14;98557.97;4155010;84;28498;-86
2021/12/03 09:36:10;;;;;;;3.80;1.60;;;;;;;0.94;100.00;98583.94;4143319;84;20611;-80
2021/12/03 09:42:20;;;;;;;2.75;1.60;;;;;;;1.02;97.65;98576.41;4148594;84;28492;-79
2021/12/03 09:48:33;;;;;;;4.50;2.02;;;;;;;1.13;97.21;98575.16;4191851;83;28476;-82
2021/12/03 10:00:55;;;;;;;3.77;1.95;;;;;;;0.94;96.54;98585.26;4197871;83;28623;-77
2021/12/03 10:44:24;;;;;;;6.08;2.00;;;;;;;1.44;87.26;98557.75;4195581;83;28549;-72
2021/12/03 11:03:30;;;;;;;5.12;2.77;;;;;;;1.89;87.42;98560.34;4180926;83;28498;-81
2021/12/03 11:25:28;;;;;;;8.08;3.72;;;;;;;1.92;88.14;98552.01;4176226;83;28470;-77
2021/12/03 12:19:08;;;;;;;7.65;2.55;;;;;;;1.25;72.18;98549.87;4114853;85;28898;-75
2021/12/03 12:25:07;;;;;;;5.03;2.65;;;;;;;1.31;70.66;98545.17;4040799;86;28551;-74
2021/12/03 13:22:23;;;;;;;8.68;2.20;;;;;;;1.19;71.66;98586.33;4146103;84;28521;-75
2021/12/03 14:33:20;;;;;;;7.47;3.15;;;;;;;0.60;82.17;98643.44;4163014;83;28516;-78
2021/12/03 14:37:22;;;;;;;9.50;3.60;;;;;;;0.52;82.51;98638.52;4201951;83;28517;-78
2021/12/03 14:49:37;;;;;;;9.60;3.65;;;;;;;0.41;79.39;98644.20;4186528;83;28545;-78
2021/12/03 14:55:31;;;;;;;10.43;3.65;;;;;;;0.25;80.77;98646.45;4194120;83;28536;-78
2021/12/03 15:07:48;;;;;;;8.45;4.03;;;;;;;0.05;82.10;98668.52;4194878;83;28497;-78
2021/12/03 15:39:17;;;;;;;11.95;4.45;;;;;;;-0.43;83.17;98693.13;4195704;83;28455;-79
2021/12/03 16:04:04;;;;;;;13.55;5.03;;;;;;;-1.02;89.82;98711.31;4183566;83;28520;-79
2021/12/03 16:10:15;;;;;;;13.80;4.87;;;;;;;-1.29;92.47;98712.77;4201601;83;28595;-76
2021/12/03 16:22:54;;;;;;;13.35;5.70;;;;;;;-1.32;89.49;98705.67;4201993;83;43958;-77
2021/12/03 16:54:11;;;;;;;20.05;8.10;;;;;;;-1.36;83.26;98734.17;4233546;82;29533;-78
2021/12/03 17:00:26;;;;;;;19.77;7.70;;;;;;;-1.44;87.69;98745.53;4242629;82;28509;-81
2021/12/03 17:07:14;;;;;;;21.82;9.15;;;;;;;-1.52;93.06;98753.41;4234615;82;28515;-77
2021/12/03 17:25:16;;;;;;;29.37;11.25;;;;;;;-1.55;88.00;98784.91;4234695;83;43443;-79
2021/12/03 17:32:16;;;;;;;26.35;11.85;;;;;;;-1.45;85.67;98776.85;4214834;82;43367;-78
2021/12/03 17:50:14;;;;;;;36.03;14.05;;;;;;;-1.55;91.12;98779.63;4203589;83;44435;-80
2021/12/03 17:56:15;;;;;;;30.62;13.10;;;;;;;-1.59;92.40;98771.69;4199500;83;43383;-78
2021/12/03 18:08:48;;;;;;;33.33;13.70;;;;;;;-1.61;92.32;98780.77;4188149;83;28501;-78
2021/12/03 18:15:14;;;;;;;32.33;13.62;;;;;;;-1.71;92.79;98785.66;4179043;83;28512;-76
2021/12/03 18:59:05;;;;;;;29.82;12.68;;;;;;;-2.48;100.00;98802.63;4204682;83;43370;-81
2021/12/03 19:05:13;;;;;;;32.28;12.45;;;;;;;-2.55;100.00;98788.78;4205380;83;44201;-76
2021/12/03 19:11:18;;;;;;;31.17;12.93;;;;;;;-2.67;100.00;98779.44;4212649;83;43378;-77
2021/12/03 19:17:11;;;;;;;26.93;11.85;;;;;;;-2.64;100.00;98783.58;4211875;83;43236;-71
2021/12/03 19:23:12;;;;;;;25.05;11.00;;;;;;;-2.72;100.00;98789.11;4209865;83;42925;-79
2021/12/03 19:29:17;;;;;;;30.90;11.85;;;;;;;-2.72;100.00;98785.66;4213939;83;43429;-82
2021/12/03 19:35:18;;;;;;;34.67;13.07;;;;;;;-2.76;100.00;98784.30;4221023;83;28466;-79
2021/12/03 19:41:30;;;;;;;29.07;11.40;;;;;;;-2.90;100.00;98776.47;4205286;83;43395;-76
2021/12/03 19:47:31;;;;;;;28.38;11.05;;;;;;;-2.89;100.00;98782.88;4205500;83;43430;-75
2021/12/03 19:53:32;;;;;;;25.37;9.65;;;;;;;-2.98;100.00;98774.56;4151704;85;41888;-75
2021/12/03 19:59:33;;;;;;;22.55;9.08;;;;;;;-2.97;100.00;98775.74;4108547;85;43932;-77
2021/12/03 20:05:35;;;;;;;19.05;7.10;;;;;;;-2.86;96.96;98781.75;4182447;84;43923;-75
2021/12/03 20:11:41;;;;;;;14.98;5.92;;;;;;;-2.71;90.13;98771.52;4173564;83;43887;-77
2021/12/03 20:17:48;;;;;;;13.28;5.17;;;;;;;-2.53;86.35;98768.39;4173008;84;43195;-80
2021/12/03 20:23:57;;;;;;;15.20;5.30;;;;;;;-2.45;83.40;98768.92;4177960;83;43942;-78
2021/12/03 20:29:56;;;;;;;10.68;4.97;;;;;;;-2.34;79.46;98768.34;4180010;83;43241;-77
2021/12/03 20:36:09;;;;;;;12.73;5.20;;;;;;;-2.34;80.17;98756.48;4183693;83;43231;-75
2021/12/03 20:42:23;;;;;;;14.50;5.40;;;;;;;-2.25;78.60;98757.69;4183690;83;43884;-82
2021/12/03 21:13:07;;;;;;;13.32;5.53;;;;;;;-1.83;74.35;98741.62;4188837;83;43221;-81
2021/12/03 21:19:13;;;;;;;16.25;6.20;;;;;;;-1.77;73.30;98735.36;4207746;83;43913;-83
2021/12/03 21:25:10;;;;;;;17.27;6.47;;;;;;;-1.75;72.66;98733.42;4202695;83;43903;-79
2021/12/03 21:43:37;;;;;;;13.78;5.28;;;;;;;-1.57;70.99;98722.25;4206525;84;43544;-80
2021/12/03 21:49:38;;;;;;;12.05;5.22;;;;;;;-1.53;70.79;98721.95;4193756;83;43233;-77
2021/12/03 21:55:45;;;;;;;13.40;5.62;;;;;;;-1.49;70.48;98716.67;4166724;85;43225;-80
2021/12/03 22:01:43;;;;;;;15.28;5.35;;;;;;;-1.39;69.74;98719.19;4187816;83;43896;-80
2021/12/03 22:07:45;;;;;;;15.50;5.87;;;;;;;-1.38;70.11;98720.33;4174375;85;28537;-82
2021/12/03 22:13:47;;;;;;;13.50;5.08;;;;;;;-1.37;69.34;98702.70;4154790;85;28532;-81
2021/12/03 22:19:51;;;;;;;23.38;6.62;;;;;;;-1.34;70.39;98701.05;4183120;85;43885;-80
2021/12/03 22:25:54;;;;;;;12.07;5.03;;;;;;;-1.37;69.75;98698.75;4160692;85;43221;-79
2021/12/03 22:31:56;;;;;;;13.78;4.12;;;;;;;-1.26;70.89;98689.20;4189113;83;43197;-79
2021/12/03 22:37:57;;;;;;;11.88;5.00;;;;;;;-1.24;69.65;98666.63;4182326;84;43205;-78
2021/12/03 22:43:59;;;;;;;12.73;4.50;;;;;;;-1.12;70.55;98646.33;4178629;83;43252;-80
2021/12/03 22:56:16;;;;;;;12.63;4.92;;;;;;;-1.11;69.66;98635.29;4189777;83;43241;-77
2021/12/03 23:02:17;;;;;;;11.50;4.62;;;;;;;-1.13;68.90;98630.68;4194732;83;43197;-77
2021/12/03 23:08:19;;;;;;;10.48;4.78;;;;;;;-1.14;70.03;98630.35;4188701;85;43201;-77
2021/12/03 23:14:20;;;;;;;13.38;5.17;;;;;;;-1.23;70.72;98630.02;4195681;84;43248;-78
2021/12/03 23:20:21;;;;;;;17.05;5.95;;;;;;;-1.46;71.85;98615.66;4193005;83;43925;-78
2021/12/03 23:26:23;;;;;;;11.63;4.75;;;;;;;-1.64;74.57;98611.02;4206581;83;43269;-78
2021/12/03 23:32:24;;;;;;;10.75;4.50;;;;;;;-1.86;74.83;98604.91;4194098;83;43272;-78
2021/12/03 23:38:26;;;;;;;12.65;5.00;;;;;;;-1.99;76.79;98597.94;4167731;83;28497;-79
2021/12/03 23:44:27;;;;;;;12.65;5.40;;;;;;;-2.17;83.61;98594.94;4207669;83;43211;-75
2021/12/03 23:50:29;;;;;;;14.68;5.47;;;;;;;-2.37;83.45;98583.02;4197768;83;43938;-78
2021/12/03 23:56:30;;;;;;;17.37;6.08;;;;;;;-2.61;85.72;98588.01;4214301;83;43893;-76
